createdAt,value
2019-05-07T00:01:23.314Z,30.17
2019-05-07T00:03:55.891Z,31.85
2019-05-07T00:06:24.431Z,30.35
2019-05-07T00:08:55.384Z,31.30
2019-05-07T00:11:23.934Z,31.55
2019-05-07T00:13:53.146Z,31.85
2019-05-07T00:16:22.600Z,30.88
2019-05-07T00:18:52.544Z,32.03
2019-05-07T00:21:23.353Z,31.90
2019-05-07T00:23:53.216Z,34.92
2019-05-07T00:26:22.598Z,31.00
2019-05-07T00:28:52.676Z,28.73
2019-05-07T00:31:23.311Z,32.08
2019-05-07T00:33:52.648Z,32.17
2019-05-07T00:36:44.861Z,31.90
2019-05-07T00:39:24.590Z,31.17
2019-05-07T00:42:03.084Z,32.70
2019-05-07T00:44:32.825Z,32.55
2019-05-07T00:47:06.556Z,32.83
2019-05-07T00:49:35.465Z,30.70
2019-05-07T00:52:06.302Z,32.98
2019-05-07T00:54:35.195Z,30.20
2019-05-07T00:57:03.751Z,32.13
2019-05-07T00:59:32.696Z,31.65
2019-05-07T01:02:02.170Z,31.50
2019-05-07T01:04:33.170Z,32.73
2019-05-07T01:07:02.752Z,30.90
2019-05-07T01:09:32.414Z,31.00
2019-05-07T01:12:03.150Z,32.40
2019-05-07T01:14:32.568Z,29.12
2019-05-07T01:17:03.062Z,28.55
2019-05-07T01:19:33.029Z,28.00
2019-05-07T01:22:03.188Z,29.32
2019-05-07T01:24:32.333Z,28.90
2019-05-07T01:27:02.377Z,30.35
2019-05-07T01:29:32.846Z,29.75
2019-05-07T01:32:09.198Z,28.55
2019-05-07T01:34:43.954Z,29.70
2019-05-07T01:37:12.521Z,28.45
2019-05-07T01:39:42.193Z,25.88
2019-05-07T01:42:13.014Z,27.45
2019-05-07T01:44:43.648Z,26.12
2019-05-07T01:47:13.102Z,27.40
2019-05-07T01:49:42.404Z,26.42
2019-05-07T01:52:13.838Z,26.40
2019-05-07T01:54:42.675Z,26.02
2019-05-07T01:57:13.541Z,27.07
2019-05-07T01:59:42.911Z,26.33
2019-05-07T02:02:18.925Z,26.33
2019-05-07T02:04:55.638Z,26.23
2019-05-07T02:07:42.768Z,26.15
2019-05-07T02:10:33.796Z,27.45
2019-05-07T02:13:02.466Z,25.92
2019-05-07T02:15:32.286Z,26.17
2019-05-07T02:18:02.432Z,27.07
2019-05-07T02:20:32.158Z,25.90
2019-05-07T02:23:02.936Z,26.20
2019-05-07T02:25:33.512Z,26.90
2019-05-07T02:28:02.344Z,26.42
2019-05-07T02:30:34.806Z,25.02
2019-05-07T02:33:03.770Z,24.43
2019-05-07T02:35:34.161Z,24.55
2019-05-07T02:38:23.600Z,25.35
2019-05-07T02:41:04.100Z,25.30
2019-05-07T02:43:34.593Z,25.37
2019-05-07T02:46:22.386Z,26.50
2019-05-07T02:48:55.884Z,26.15
2019-05-07T02:51:34.064Z,27.27
2019-05-07T02:54:08.431Z,25.77
2019-05-07T02:56:37.067Z,25.72
2019-05-07T02:59:07.089Z,26.70
2019-05-07T03:01:37.354Z,28.25
2019-05-07T03:04:08.472Z,25.92
2019-05-07T03:06:38.443Z,26.97
2019-05-07T03:09:14.543Z,27.05
2019-05-07T03:11:43.681Z,26.95
2019-05-07T03:14:13.919Z,26.42
2019-05-07T03:16:49.374Z,26.40
2019-05-07T03:19:18.635Z,28.10
2019-05-07T03:21:56.296Z,25.35
2019-05-07T03:24:43.495Z,26.17
2019-05-07T03:27:14.293Z,25.68
2019-05-07T03:29:46.185Z,26.68
2019-05-07T03:32:38.304Z,26.05
2019-05-07T03:35:26.608Z,26.33
2019-05-07T03:37:54.676Z,24.92
2019-05-07T03:40:24.060Z,24.37
2019-05-07T03:42:54.965Z,25.43
2019-05-07T03:45:33.882Z,25.32
2019-05-07T03:48:13.279Z,24.87
2019-05-07T03:50:44.308Z,24.82
2019-05-07T03:53:14.664Z,24.43
2019-05-07T03:55:45.064Z,26.00
2019-05-07T03:58:14.733Z,25.92
2019-05-07T04:00:46.109Z,24.70
2019-05-07T04:03:18.953Z,25.00
2019-05-07T04:05:45.482Z,25.95
2019-05-07T04:08:15.813Z,23.98
2019-05-07T04:10:46.542Z,26.20
2019-05-07T04:13:15.514Z,24.87
2019-05-07T04:15:44.424Z,24.30
2019-05-07T04:18:16.459Z,23.60
2019-05-07T04:20:45.019Z,25.05
2019-05-07T04:23:15.080Z,25.50
2019-05-07T04:26:04.262Z,23.90
2019-05-07T04:28:54.511Z,21.90
2019-05-07T04:31:24.831Z,20.62
2019-05-07T04:33:57.169Z,19.65
2019-05-07T04:36:45.118Z,19.17
2019-05-07T04:39:13.908Z,19.17
2019-05-07T04:41:43.448Z,17.02
2019-05-07T04:44:14.162Z,17.40
2019-05-07T04:46:47.994Z,17.42
2019-05-07T04:49:14.498Z,17.12
2019-05-07T04:51:55.249Z,15.95
2019-05-07T04:54:24.214Z,16.67
2019-05-07T04:56:54.124Z,18.55
2019-05-07T04:59:23.689Z,18.82
2019-05-07T05:02:04.079Z,17.20
2019-05-07T05:04:34.731Z,17.27
2019-05-07T05:07:03.847Z,18.67
2019-05-07T05:09:34.463Z,18.12
2019-05-07T05:12:03.055Z,17.62
2019-05-07T05:14:33.730Z,17.50
2019-05-07T05:17:02.560Z,18.42
2019-05-07T05:19:32.297Z,18.23
2019-05-07T05:22:22.056Z,18.77
2019-05-07T05:25:32.169Z,20.70
2019-05-07T05:28:02.065Z,19.82
2019-05-07T05:30:42.366Z,20.37
2019-05-07T05:33:09.512Z,20.82
2019-05-07T05:35:43.062Z,20.57
2019-05-07T05:38:13.759Z,20.52
2019-05-07T05:40:43.004Z,22.85
2019-05-07T05:43:22.368Z,21.68
2019-05-07T05:45:53.031Z,23.10
2019-05-07T05:48:23.922Z,21.15
2019-05-07T05:51:08.296Z,21.95
2019-05-07T05:54:02.115Z,21.20
2019-05-07T05:56:38.930Z,20.97
2019-05-07T05:59:25.330Z,21.05
2019-05-07T06:02:12.167Z,23.27
2019-05-07T06:04:49.124Z,22.02
2019-05-07T06:07:33.637Z,19.32
2019-05-07T06:10:12.868Z,17.30
2019-05-07T06:12:52.141Z,18.62
2019-05-07T06:15:46.062Z,17.20
2019-05-07T06:18:32.769Z,15.18
2019-05-07T06:21:12.876Z,15.43
2019-05-07T06:23:46.154Z,14.05
2019-05-07T06:26:16.706Z,9.48
2019-05-07T06:28:47.631Z,10.35
2019-05-07T06:31:19.471Z,13.55
2019-05-07T06:33:49.685Z,10.13
2019-05-07T06:36:18.591Z,9.05
2019-05-07T06:38:53.185Z,8.40
2019-05-07T06:41:41.751Z,8.33
2019-05-07T06:44:15.466Z,8.68
2019-05-07T06:46:47.672Z,7.28
2019-05-07T06:49:17.175Z,7.70
2019-05-07T06:51:47.878Z,6.50
2019-05-07T06:54:16.868Z,7.62
2019-05-07T06:56:49.460Z,7.08
2019-05-07T06:59:42.374Z,7.55
2019-05-07T07:02:44.370Z,7.60
2019-05-07T07:05:34.052Z,7.03
2019-05-07T07:08:08.160Z,8.18
2019-05-07T07:11:05.088Z,8.05
2019-05-07T07:13:37.668Z,7.08
2019-05-07T07:16:06.616Z,8.08
2019-05-07T07:18:48.379Z,6.55
2019-05-07T07:21:07.541Z,7.37
2019-05-07T07:23:37.985Z,7.00
2019-05-07T07:26:06.899Z,6.25
2019-05-07T07:28:35.857Z,6.65
2019-05-07T07:31:33.758Z,6.40
2019-05-07T07:34:04.823Z,7.17
2019-05-07T07:36:38.120Z,7.30
2019-05-07T07:39:07.783Z,6.92
2019-05-07T07:41:49.613Z,7.33
2019-05-07T07:44:22.377Z,6.10
2019-05-07T07:46:53.221Z,5.73
2019-05-07T07:49:22.409Z,5.50
2019-05-07T07:51:52.556Z,5.30
2019-05-07T07:54:22.680Z,5.08
2019-05-07T07:57:21.762Z,6.75
2019-05-07T08:00:02.548Z,6.12
2019-05-07T08:02:46.281Z,6.08
2019-05-07T08:05:14.865Z,6.25
2019-05-07T08:07:43.453Z,6.15
2019-05-07T08:10:15.259Z,6.35
2019-05-07T08:12:45.174Z,5.45
2019-05-07T08:15:20.396Z,6.03
2019-05-07T08:17:47.074Z,6.35
2019-05-07T08:20:15.807Z,5.92
2019-05-07T08:22:46.113Z,6.12
2019-05-07T08:25:15.478Z,6.20
2019-05-07T08:27:44.704Z,6.75
2019-05-07T08:30:22.224Z,6.35
2019-05-07T08:33:03.192Z,4.97
2019-05-07T08:35:41.951Z,5.45
2019-05-07T08:38:12.795Z,4.87
2019-05-07T08:40:41.903Z,4.45
2019-05-07T08:43:12.450Z,4.80
2019-05-07T08:46:07.847Z,4.25
2019-05-07T08:48:45.243Z,4.97
2019-05-07T08:51:18.278Z,4.47
2019-05-07T08:54:05.276Z,4.78
2019-05-07T08:56:34.952Z,5.85
2019-05-07T08:59:12.252Z,6.33
2019-05-07T09:01:43.385Z,6.00
2019-05-07T09:04:13.433Z,6.12
2019-05-07T09:06:43.185Z,6.33
2019-05-07T09:09:16.112Z,6.03
2019-05-07T09:11:46.663Z,5.77
2019-05-07T09:14:15.421Z,6.05
2019-05-07T09:16:47.623Z,5.67
2019-05-07T09:19:16.610Z,5.78
2019-05-07T09:21:52.796Z,6.00
2019-05-07T09:24:22.504Z,6.25
2019-05-07T09:27:15.243Z,5.55
2019-05-07T09:30:04.199Z,4.70
2019-05-07T09:33:02.536Z,5.33
2019-05-07T09:35:42.394Z,4.30
2019-05-07T09:38:14.838Z,5.12
2019-05-07T09:40:43.751Z,5.47
2019-05-07T09:43:12.696Z,4.72
2019-05-07T09:45:42.057Z,3.83
2019-05-07T09:48:11.941Z,4.37
2019-05-07T09:50:42.905Z,4.35
2019-05-07T09:53:14.883Z,3.62
2019-05-07T09:55:43.597Z,4.72
2019-05-07T09:58:15.503Z,4.40
2019-05-07T10:00:44.205Z,6.08
2019-05-07T10:03:13.136Z,4.78
2019-05-07T10:05:42.800Z,4.55
2019-05-07T10:08:13.682Z,4.65
2019-05-07T10:10:45.142Z,4.78
2019-05-07T10:13:33.122Z,4.53
2019-05-07T10:16:03.843Z,5.22
2019-05-07T10:18:35.798Z,9.10
2019-05-07T10:21:06.455Z,5.30
2019-05-07T10:23:35.034Z,6.92
2019-05-07T10:26:04.286Z,5.58
2019-05-07T10:28:36.103Z,5.45
2019-05-07T10:31:04.657Z,5.12
2019-05-07T10:33:33.240Z,4.40
2019-05-07T10:36:02.198Z,5.40
2019-05-07T10:38:34.164Z,6.25
2019-05-07T10:41:02.956Z,5.17
2019-05-07T10:43:33.455Z,5.40
2019-05-07T10:46:15.289Z,5.35
2019-05-07T10:49:01.978Z,6.35
2019-05-07T10:51:32.229Z,5.95
2019-05-07T10:54:03.209Z,5.50
2019-05-07T10:56:32.726Z,5.80
2019-05-07T10:59:02.824Z,5.22
2019-05-07T11:01:51.990Z,5.75
2019-05-07T11:04:21.572Z,4.87
2019-05-07T11:06:52.414Z,5.70
2019-05-07T11:09:22.212Z,5.20
2019-05-07T11:11:52.314Z,5.30
2019-05-07T11:14:23.324Z,5.28
2019-05-07T11:17:07.110Z,5.58
2019-05-07T11:19:35.715Z,5.70
2019-05-07T11:22:04.438Z,5.75
2019-05-07T11:24:33.000Z,6.62
2019-05-07T11:27:02.424Z,6.20
2019-05-07T11:29:32.765Z,5.78
2019-05-07T11:32:01.475Z,5.62
2019-05-07T11:34:33.569Z,5.85
2019-05-07T11:37:02.492Z,5.58
2019-05-07T11:39:33.114Z,5.45
2019-05-07T11:42:35.414Z,6.47
2019-05-07T11:45:04.329Z,6.03
2019-05-07T11:47:33.813Z,5.53
2019-05-07T11:50:17.811Z,6.10
2019-05-07T11:55:22.478Z,6.12
2019-05-07T11:57:51.835Z,5.72
2019-05-07T12:00:32.298Z,5.92
2019-05-07T12:03:02.556Z,18.20
2019-05-07T12:05:33.218Z,15.80
2019-05-07T12:08:03.777Z,20.80
2019-05-07T12:10:32.958Z,6.25
2019-05-07T12:13:02.360Z,10.13
2019-05-07T12:15:32.477Z,5.67
2019-05-07T12:18:02.991Z,5.97
2019-05-07T12:20:32.610Z,7.58
2019-05-07T12:23:03.060Z,12.50
2019-05-07T12:25:35.992Z,8.18
2019-05-07T12:28:06.009Z,5.90
2019-05-07T12:30:46.459Z,6.17
2019-05-07T12:33:26.929Z,5.55
2019-05-07T12:35:59.282Z,5.53
2019-05-07T12:38:28.226Z,5.58
2019-05-07T12:40:56.845Z,5.80
2019-05-07T12:43:25.576Z,5.40
2019-05-07T12:45:54.616Z,5.53
2019-05-07T12:48:23.484Z,6.10
2019-05-07T12:50:52.375Z,5.72
2019-05-07T12:53:43.879Z,5.87
2019-05-07T12:56:12.458Z,5.45
2019-05-07T12:58:41.169Z,5.53
2019-05-07T13:01:23.451Z,5.80
2019-05-07T13:04:02.682Z,6.55
2019-05-07T13:06:32.607Z,6.12
2019-05-07T13:09:01.432Z,6.15
2019-05-07T13:11:32.471Z,6.08
2019-05-07T13:14:02.131Z,6.15
2019-05-07T13:16:32.354Z,6.28
2019-05-07T13:19:02.593Z,5.37
2019-05-07T13:21:46.400Z,5.30
2019-05-07T13:24:03.999Z,7.75
2019-05-07T13:26:34.308Z,5.37
2019-05-07T13:29:04.863Z,6.33
2019-05-07T13:31:38.154Z,5.87
2019-05-07T13:34:08.490Z,6.05
2019-05-07T13:36:42.931Z,6.83
2019-05-07T13:39:23.500Z,6.83
2019-05-07T13:42:04.066Z,5.53
2019-05-07T13:44:45.802Z,6.40
2019-05-07T13:47:35.036Z,6.90
2019-05-07T13:50:03.600Z,6.87
2019-05-07T13:52:33.848Z,6.97
2019-05-07T13:55:04.878Z,6.83
2019-05-07T13:57:33.835Z,6.70
2019-05-07T14:00:05.052Z,6.60
2019-05-07T14:02:35.400Z,6.28
2019-05-07T14:05:08.437Z,6.25
2019-05-07T14:07:41.641Z,7.72
2019-05-07T14:10:12.414Z,6.75
2019-05-07T14:12:42.385Z,6.17
2019-05-07T14:15:12.560Z,6.33
2019-05-07T14:17:44.518Z,6.15
2019-05-07T14:20:13.147Z,6.83
2019-05-07T14:22:42.580Z,7.10
2019-05-07T14:25:11.268Z,7.40
2019-05-07T14:27:59.473Z,6.95
2019-05-07T14:30:29.789Z,6.55
2019-05-07T14:33:12.477Z,7.35
2019-05-07T14:35:53.916Z,6.58
2019-05-07T14:38:32.054Z,6.62
2019-05-07T14:41:02.720Z,6.47
2019-05-07T14:43:46.077Z,6.25
2019-05-07T14:46:16.305Z,7.12
2019-05-07T14:48:45.100Z,7.20
2019-05-07T14:51:13.646Z,7.05
2019-05-07T14:53:42.855Z,6.90
2019-05-07T14:56:18.994Z,7.22
2019-05-07T14:58:48.090Z,7.12
2019-05-07T15:01:22.279Z,7.30
2019-05-07T15:03:51.675Z,17.50
2019-05-07T15:06:21.884Z,6.40
2019-05-07T15:08:52.239Z,7.25
2019-05-07T15:11:21.459Z,7.90
2019-05-07T15:13:52.188Z,7.05
2019-05-07T15:16:22.515Z,7.65
2019-05-07T15:18:55.665Z,6.97
2019-05-07T15:21:24.621Z,6.75
2019-05-07T15:23:53.584Z,7.20
2019-05-07T15:26:23.783Z,7.70
2019-05-07T15:28:58.197Z,7.50
2019-05-07T15:31:44.673Z,6.17
2019-05-07T15:34:15.237Z,6.10
2019-05-07T15:36:45.668Z,5.90
2019-05-07T15:39:14.592Z,5.72
2019-05-07T15:41:43.467Z,5.25
2019-05-07T15:44:12.675Z,5.65
2019-05-07T15:46:43.134Z,5.85
2019-05-07T15:49:12.535Z,6.65
2019-05-07T15:51:44.643Z,6.33
2019-05-07T15:54:13.658Z,6.45
2019-05-07T15:56:42.374Z,7.17
2019-05-07T15:59:14.147Z,6.50
2019-05-07T16:01:43.908Z,6.25
2019-05-07T16:04:25.636Z,6.45
2019-05-07T16:06:55.217Z,6.55
2019-05-07T16:09:28.063Z,6.28
2019-05-07T16:12:00.159Z,6.20
2019-05-07T16:14:29.161Z,6.45
2019-05-07T16:17:07.613Z,6.67
2019-05-07T16:19:36.192Z,6.60
2019-05-07T16:22:16.556Z,7.25
2019-05-07T16:24:45.118Z,7.15
2019-05-07T16:27:15.338Z,6.55
2019-05-07T16:29:44.218Z,8.55
2019-05-07T16:32:12.890Z,8.33
2019-05-07T16:34:42.907Z,7.53
2019-05-07T16:37:12.317Z,7.50
2019-05-07T16:39:42.115Z,8.55
2019-05-07T16:42:14.915Z,7.70
2019-05-07T16:44:45.707Z,7.67
2019-05-07T16:47:14.644Z,7.40
2019-05-07T16:49:43.882Z,7.33
2019-05-07T16:52:12.500Z,7.35
2019-05-07T16:54:42.676Z,7.35
2019-05-07T16:57:33.712Z,7.17
2019-05-07T17:00:03.120Z,7.40
2019-05-07T17:02:36.079Z,7.70
2019-05-07T17:05:12.322Z,7.83
2019-05-07T17:07:47.517Z,7.00
2019-05-07T17:10:17.222Z,8.00
2019-05-07T17:12:47.152Z,7.45
2019-05-07T17:15:17.968Z,7.33
2019-05-07T17:17:46.516Z,7.22
2019-05-07T17:20:15.448Z,7.70
2019-05-07T17:22:45.962Z,7.35
2019-05-07T17:25:33.408Z,7.15
2019-05-07T17:28:05.803Z,7.30
2019-05-07T17:30:37.514Z,7.20
2019-05-07T17:33:05.107Z,7.65
2019-05-07T17:35:34.504Z,7.60
2019-05-07T17:38:09.482Z,7.70
2019-05-07T17:40:38.313Z,7.50
2019-05-07T17:43:07.309Z,7.70
2019-05-07T17:45:35.878Z,7.33
2019-05-07T17:48:05.808Z,7.10
2019-05-07T17:50:45.079Z,7.60
2019-05-07T17:53:16.776Z,7.90
2019-05-07T17:55:45.667Z,7.53
2019-05-07T17:58:14.548Z,8.03
2019-05-07T18:00:46.097Z,8.20
2019-05-07T18:03:34.286Z,8.20
2019-05-07T18:06:04.300Z,8.18
2019-05-07T18:08:32.944Z,9.88
2019-05-07T18:11:17.320Z,9.80
2019-05-07T18:13:33.825Z,10.65
2019-05-07T18:16:23.123Z,8.60
2019-05-07T18:18:53.334Z,8.68
2019-05-07T18:21:23.675Z,7.97
2019-05-07T18:23:52.614Z,8.35
2019-05-07T18:26:30.414Z,8.88
2019-05-07T18:28:54.516Z,8.40
2019-05-07T18:31:44.779Z,10.03
2019-05-07T18:34:13.526Z,12.60
2019-05-07T18:36:42.499Z,12.60
2019-05-07T18:39:11.341Z,11.63
2019-05-07T18:41:41.705Z,10.63
2019-05-07T18:44:13.605Z,10.23
2019-05-07T18:46:41.082Z,10.13
2019-05-07T18:49:09.805Z,10.65
2019-05-07T18:51:38.739Z,10.60
2019-05-07T18:54:08.638Z,9.58
2019-05-07T18:56:41.915Z,10.18
2019-05-07T18:59:16.151Z,10.45
2019-05-07T19:01:44.967Z,10.95
2019-05-07T19:04:13.698Z,10.30
2019-05-07T19:06:47.083Z,10.55
2019-05-07T19:09:15.690Z,11.22
2019-05-07T19:11:45.919Z,10.80
2019-05-07T19:14:16.567Z,10.38
2019-05-07T19:16:45.287Z,10.70
2019-05-07T19:19:14.230Z,9.90
2019-05-07T19:21:43.330Z,9.83
2019-05-07T19:24:14.008Z,9.35
2019-05-07T19:26:45.923Z,9.40
2019-05-07T19:29:16.219Z,10.82
2019-05-07T19:31:52.480Z,10.65
2019-05-07T19:34:23.074Z,10.15
2019-05-07T19:36:52.249Z,10.05
2019-05-07T19:39:23.392Z,9.18
2019-05-07T19:41:53.241Z,9.38
2019-05-07T19:44:23.534Z,9.60
2019-05-07T19:46:52.532Z,9.55
2019-05-07T19:49:24.270Z,9.30
2019-05-07T19:51:55.879Z,10.03
2019-05-07T19:54:24.611Z,10.25
2019-05-07T19:56:53.160Z,10.23
2019-05-07T19:59:23.732Z,11.15
2019-05-07T20:01:58.954Z,9.55
2019-05-07T20:04:27.525Z,9.68
2019-05-07T20:06:59.185Z,9.55
2019-05-07T20:09:32.939Z,9.55
2019-05-07T20:12:02.674Z,10.00
2019-05-07T20:14:36.361Z,10.25
2019-05-07T20:17:07.280Z,9.35
2019-05-07T20:19:35.850Z,9.85
2019-05-07T20:22:06.659Z,9.85
2019-05-07T20:24:35.230Z,10.25
2019-05-07T20:27:03.768Z,9.33
2019-05-07T20:29:32.515Z,8.95
2019-05-07T20:32:01.415Z,9.98
2019-05-07T20:34:29.961Z,11.22
2019-05-07T20:37:02.000Z,10.85
2019-05-07T20:39:32.133Z,11.73
2019-05-07T20:42:02.869Z,15.53
2019-05-07T20:44:32.562Z,19.17
2019-05-07T20:47:04.756Z,14.75
2019-05-07T20:49:33.727Z,13.08
2019-05-07T20:52:03.834Z,13.72
2019-05-07T20:54:52.802Z,14.38
2019-05-07T20:57:26.630Z,13.60
2019-05-07T20:59:56.768Z,13.62
2019-05-07T21:02:25.817Z,12.50
2019-05-07T21:04:59.296Z,12.23
2019-05-07T21:07:27.864Z,11.22
2019-05-07T21:10:02.084Z,11.60
2019-05-07T21:12:33.125Z,12.37
2019-05-07T21:15:03.255Z,12.03
2019-05-07T21:17:32.217Z,11.50
2019-05-07T21:20:02.433Z,12.28
2019-05-07T21:22:31.997Z,11.93
2019-05-07T21:25:02.692Z,11.73
2019-05-07T21:27:32.093Z,11.45
2019-05-07T21:30:02.540Z,11.75
2019-05-07T21:32:32.549Z,10.15
2019-05-07T21:35:02.553Z,10.35
2019-05-07T21:37:32.356Z,11.22
2019-05-07T21:40:02.427Z,11.93
2019-05-07T21:42:32.155Z,11.20
2019-05-07T21:45:02.084Z,11.65
2019-05-07T21:47:32.701Z,11.22
2019-05-07T21:50:03.136Z,12.05
2019-05-07T21:52:34.381Z,11.18
2019-05-07T21:55:10.266Z,11.30
2019-05-07T21:58:09.304Z,11.80
2019-05-07T22:00:55.495Z,11.70
2019-05-07T22:03:24.081Z,11.10
2019-05-07T22:05:52.659Z,11.05
2019-05-07T22:08:21.870Z,10.43
2019-05-07T22:10:50.659Z,10.23
2019-05-07T22:13:22.104Z,11.75
2019-05-07T22:15:55.172Z,12.63
2019-05-07T22:18:26.687Z,12.03
2019-05-07T22:20:55.320Z,12.00
2019-05-07T22:23:24.775Z,13.03
2019-05-07T22:25:57.091Z,12.18
2019-05-07T22:28:27.544Z,12.95
2019-05-07T22:31:12.732Z,12.55
2019-05-07T22:33:48.110Z,13.35
2019-05-07T22:36:16.704Z,12.20
2019-05-07T22:38:45.255Z,13.40
2019-05-07T22:41:16.589Z,12.50
2019-05-07T22:43:45.146Z,12.85
2019-05-07T22:46:14.289Z,12.65
2019-05-07T22:48:44.213Z,11.65
2019-05-07T22:51:13.426Z,11.68
2019-05-07T22:53:41.962Z,13.00
2019-05-07T22:56:12.274Z,13.32
2019-05-07T22:58:45.713Z,12.63
2019-05-07T23:01:16.435Z,11.63
2019-05-07T23:03:44.993Z,12.50
2019-05-07T23:06:15.135Z,12.37
2019-05-07T23:08:44.022Z,11.95
2019-05-07T23:11:12.592Z,13.28
2019-05-07T23:13:42.761Z,12.35
2019-05-07T23:16:12.696Z,12.37
2019-05-07T23:18:42.910Z,12.20
2019-05-07T23:21:14.649Z,13.03
2019-05-07T23:23:43.920Z,12.58
2019-05-07T23:26:14.778Z,13.08
2019-05-07T23:28:42.760Z,12.65
2019-05-07T23:31:12.091Z,12.68
2019-05-07T23:33:42.441Z,14.18
2019-05-07T23:36:12.948Z,12.47
2019-05-07T23:38:42.627Z,13.68
2019-05-07T23:41:38.203Z,13.20
2019-05-07T23:44:18.981Z,13.05
2019-05-07T23:46:49.058Z,13.15
2019-05-07T23:49:18.151Z,14.68
2019-05-07T23:51:48.650Z,13.72
2019-05-07T23:54:17.676Z,14.90
2019-05-07T23:56:46.418Z,15.38
2019-05-07T23:59:15.266Z,15.75
